METAR AND TAF INFORMATION
METAR FOR LDDU
ADDS - METARS form results

(1018 UTC 24 January 2022)
Data provider http://aviationweather.gov/metar/data/
 
METAR text: LDDU 241000Z 07012G26KT 330V140 9999 FEW050 03/M16 Q1028 TEMPO 02018KT
Conditions at: LDDU (DUBROVNIK-CILIPI, HR) observed 1000 UTC 24 January 2022
Temperature: 3.0°C (37°F)
Dewpoint: -16.0°C ( 3°F) [RH = 23%]
Pressure (altimeter): 30.35 inches Hg (1028.0 mb)
Winds: from the ENE (70 degrees) at 14 MPH (12 knots; 6.2 m/s)
gusting to 30 MPH (26 knots; 13.4 m/s)
Visibility: 6 or more miles (10+ km)
Ceiling: at least 12,000 feet AGL
Clouds: few clouds at 5000 feet AGL
Weather: no significant weather observed at this time

METAR text: LDDU 240930Z 06018G30KT 010V110 9999 FEW050 02/M16 Q1028 TEMPO 02018KT
Conditions at: LDDU (DUBROVNIK-CILIPI, HR) observed 0930 UTC 24 January 2022
Temperature: 2.0°C (36°F)
Dewpoint: -16.0°C ( 3°F) [RH = 25%]
Pressure (altimeter): 30.35 inches Hg (1028.0 mb)
Winds: from the ENE (60 degrees) at 21 MPH (18 knots; 9.3 m/s)
gusting to 34 MPH (30 knots; 15.4 m/s)
Visibility: 6 or more miles (10+ km)
Ceiling: at least 12,000 feet AGL
Clouds: few clouds at 5000 feet AGL
Weather: no significant weather observed at this time

Forecast for: AMD
Text: TAF AMD LDDU 240734Z 2407/2506 VRB05KT CAVOK TX04/2413Z TNM02/2505Z
Forecast period: 0700 UTC 24 January 2022 to 0600 UTC 25 January 2022
Forecast type: FROM: standard forecast or significant change
Winds: variable direction winds at 6 MPH (5 knots; 2.6 m/s)
Visibility: 6 or more miles (10+ km)
Ceiling: unknown
Clouds: missing
Weather: no significant weather forecast for this period
Text: PROB30
Forecast period: 0700 UTC 24 January 2022 to 0000 UTC 25 January 2022
Forecast type: TEMPORARY: The following changes expected for less than half the time period
Winds: from the NNE (20 degrees) at 21 MPH (18 knots; 9.3 m/s)
gusting to 34 MPH (30 knots; 15.4 m/s)
Visibility: missing
Ceiling: unknown
Clouds: missing
Weather: no significant weather forecast for this period

 AIRPORT MAP

 RUNWAY INFORMATION
Runway 12 Runway length 10827 ft Runway width 148 ft
Runway elevation 519 ft Runway displaced threshold 488 ft Runway heading 118
Runway 30 Runway length 10827 ft Runway width 148 ft
Runway elevation 484 ft Runway displaced threshold 0 ft Runway heading 298

 AIRPORT FREQUENCIES
Type APP Name APP Frequency 123.6 MHZ
Type TWR Name TWR Frequency 129.5 MHZ

 AIRPORT NEAR NAVIGATION AIDS
Type NDB Name Dubrovnik Frequency 397 KHZ
Type VOR-DME Name Dubrovnik Frequency 115400 KHZ
Type NDB Name Dubrovnik Frequency 414 KHZ
Type NDB Name Kolocep Frequency 318 KHZ



Powered by Virtual Airlines Manager [v2.6.2]